CYUL

Montreal / Pierre Elliott Trudeau International Airport

Montréal, Quebec, Canada
METAR CYUL 221300Z 25004KT 30SM FEW025 SCT050 SCT100 SCT250 02/M04 A3013 RMK CF1SC3AC1CI1 CF TR CI TR SLP204
Observed Flight Rules
Oct-22 @ 13:00 UTC (an hour ago) Visual Flight Rules
Wind Visibility Clouds
250° at 4 knots 30 miles
  • Few at 2,500' AGL
  • Scattered at 5,000' AGL
  • Scattered at 10,000' AGL
  • Scattered at 25,000' AGL
Temperatures Readings
Current 2°C / 36°F
Dewpoint -4°C / 25°F
Humidity 65%
Altimeter 30.13" Hg
Pressure 1020.4 hPa
Elevation 36
METAR CYUL 221300Z 25004KT 30SM FEW025 SCT050 SCT100 SCT250 02/M04 A3013 RMK CF1SC3AC1CI1 CF TR CI TR SLP204
Observed Flight Rules
Oct-22 @ 13:00 UTC
(an hour ago)
VFR
Wind Visibility
250° at 4 knots 30 miles
Clouds
  • Few at 2,500' AGL
  • Scattered at 5,000' AGL
  • Scattered at 10,000' AGL
  • Scattered at 25,000' AGL
Temperature Dewpoint
2°C / 36°F -4°C / 25°F
Humidity Altimeter Pressure
65% 30.13" Hg 1020.4 hPa